createdAt,value
2018-02-19T00:01:11.629Z,5.30
2018-02-19T00:03:39.899Z,5.60
2018-02-19T00:06:08.204Z,5.60
2018-02-19T00:08:37.235Z,5.50
2018-02-19T00:11:05.654Z,5.50
2018-02-19T00:13:33.920Z,5.50
2018-02-19T00:16:02.186Z,5.40
2018-02-19T00:18:30.461Z,5.30
2018-02-19T00:20:58.716Z,5.40
2018-02-19T00:23:27.012Z,5.30
2018-02-19T00:25:55.277Z,5.30
2018-02-19T00:28:23.536Z,5.30
2018-02-19T00:30:52.597Z,5.60
2018-02-19T00:33:20.851Z,5.60
2018-02-19T00:35:49.155Z,5.50
2018-02-19T00:38:17.424Z,5.60
2018-02-19T00:40:45.745Z,5.60
2018-02-19T00:43:14.760Z,5.50
2018-02-19T00:45:43.549Z,5.50
2018-02-19T00:48:11.820Z,5.20
2018-02-19T00:50:40.090Z,5.10
2018-02-19T00:53:09.128Z,5.10
2018-02-19T00:55:37.405Z,5.10
2018-02-19T00:58:05.785Z,5.00
2018-02-19T01:00:34.031Z,5.00
2018-02-19T01:03:02.292Z,5.20
2018-02-19T01:05:30.568Z,5.30
2018-02-19T01:07:58.894Z,5.40
2018-02-19T01:10:27.174Z,5.30
2018-02-19T01:12:55.437Z,5.40
2018-02-19T01:15:23.828Z,5.20
2018-02-19T01:17:52.088Z,5.40
2018-02-19T01:20:20.483Z,5.50
2018-02-19T01:22:48.728Z,5.50
2018-02-19T01:25:16.988Z,5.50
2018-02-19T01:27:45.266Z,5.40
2018-02-19T01:30:13.524Z,5.20
2018-02-19T01:32:42.689Z,5.00
2018-02-19T01:35:10.952Z,5.00
2018-02-19T01:37:39.243Z,5.00
2018-02-19T01:40:07.492Z,4.80
2018-02-19T01:42:35.798Z,4.50
2018-02-19T01:45:04.054Z,4.10
2018-02-19T01:47:32.319Z,4.30
2018-02-19T01:50:12.609Z,4.60
2018-02-19T01:52:40.902Z,4.40
2018-02-19T01:55:09.265Z,4.70
2018-02-19T01:57:37.514Z,4.70
2018-02-19T02:00:05.797Z,4.80
2018-02-19T02:02:34.199Z,4.60
2018-02-19T02:05:02.485Z,4.30
2018-02-19T02:07:30.855Z,4.50
2018-02-19T02:09:59.115Z,4.70
2018-02-19T02:12:27.410Z,4.60
2018-02-19T02:14:55.677Z,4.70
2018-02-19T02:17:23.938Z,4.90
2018-02-19T02:19:52.344Z,4.90
2018-02-19T02:22:20.621Z,4.80
2018-02-19T02:24:48.898Z,4.60
2018-02-19T02:27:17.277Z,4.70
2018-02-19T02:29:45.558Z,4.90
2018-02-19T02:32:13.843Z,5.00
2018-02-19T02:34:42.117Z,4.90
2018-02-19T02:37:10.406Z,5.10
2018-02-19T02:39:38.765Z,4.80
2018-02-19T02:42:07.739Z,4.80
2018-02-19T02:44:36.000Z,4.90
2018-02-19T02:47:04.257Z,5.10
2018-02-19T02:49:32.605Z,5.00
2018-02-19T02:52:00.867Z,4.90
2018-02-19T02:54:29.350Z,4.80
2018-02-19T02:56:57.604Z,4.60
2018-02-19T02:59:26.008Z,4.70
2018-02-19T03:01:54.260Z,4.80
2018-02-19T03:04:22.674Z,4.40
2018-02-19T03:06:50.940Z,4.70
2018-02-19T03:09:19.223Z,4.60
2018-02-19T03:11:47.481Z,4.40
2018-02-19T03:14:15.750Z,4.30
2018-02-19T03:16:44.026Z,4.10
2018-02-19T03:19:12.306Z,4.10
2018-02-19T03:21:40.764Z,4.20
2018-02-19T03:24:09.019Z,4.00
2018-02-19T03:26:37.296Z,4.00
2018-02-19T03:29:05.558Z,4.20
2018-02-19T03:31:33.874Z,4.10
2018-02-19T03:34:02.150Z,4.00
2018-02-19T03:36:30.497Z,4.10
2018-02-19T03:38:58.776Z,4.10
2018-02-19T03:41:27.039Z,4.20
2018-02-19T03:43:55.340Z,4.10
2018-02-19T03:46:23.596Z,4.10
2018-02-19T03:48:51.878Z,4.40
2018-02-19T03:51:20.137Z,4.20
2018-02-19T03:53:49.180Z,4.50
2018-02-19T03:56:17.442Z,4.50
2018-02-19T03:58:45.724Z,4.50
2018-02-19T04:01:14.029Z,4.70
2018-02-19T04:03:42.327Z,4.90
2018-02-19T04:06:11.353Z,4.50
2018-02-19T04:08:39.620Z,4.50
2018-02-19T04:11:07.956Z,4.50
2018-02-19T04:13:36.992Z,4.60
2018-02-19T04:16:05.280Z,4.60
2018-02-19T04:18:33.588Z,4.60
2018-02-19T04:21:01.973Z,4.60
2018-02-19T04:23:30.229Z,4.40
2018-02-19T04:25:58.496Z,4.30
2018-02-19T04:28:26.775Z,4.10
2018-02-19T04:30:55.051Z,4.30
2018-02-19T04:33:23.328Z,4.40
2018-02-19T04:35:51.618Z,4.20
2018-02-19T04:38:19.907Z,4.00
2018-02-19T04:40:48.156Z,4.10
2018-02-19T04:43:16.564Z,4.20
2018-02-19T04:45:48.260Z,4.30
2018-02-19T04:48:17.341Z,4.60
2018-02-19T04:50:45.696Z,4.60
2018-02-19T04:53:13.969Z,4.50
2018-02-19T04:55:42.301Z,4.30
2018-02-19T04:58:10.625Z,4.20
2018-02-19T05:00:38.914Z,4.20
2018-02-19T05:03:07.257Z,4.00
2018-02-19T05:05:35.586Z,3.90
2018-02-19T05:08:03.896Z,3.50
2018-02-19T05:10:32.204Z,3.60
2018-02-19T05:13:00.496Z,3.40
2018-02-19T05:15:29.524Z,3.20
2018-02-19T05:17:57.889Z,3.10
2018-02-19T05:20:27.850Z,3.20
2018-02-19T05:22:56.210Z,3.20
2018-02-19T05:25:24.428Z,3.40
2018-02-19T05:27:53.467Z,3.40
2018-02-19T05:30:22.376Z,3.40
2018-02-19T05:32:50.666Z,3.20
2018-02-19T05:35:18.952Z,3.50
2018-02-19T05:37:47.243Z,3.40
2018-02-19T05:40:15.617Z,3.20
2018-02-19T05:42:43.900Z,2.90
2018-02-19T05:45:12.272Z,3.00
2018-02-19T05:47:40.657Z,2.90
2018-02-19T05:50:08.940Z,2.90
2018-02-19T05:52:37.981Z,2.60
2018-02-19T05:55:06.295Z,2.60
2018-02-19T05:57:34.589Z,2.70
2018-02-19T06:00:03.713Z,2.70
2018-02-19T06:02:32.012Z,2.70
2018-02-19T06:05:00.316Z,3.00
2018-02-19T06:07:28.699Z,3.00
2018-02-19T06:09:56.980Z,2.80
2018-02-19T06:12:25.269Z,3.00
2018-02-19T06:14:54.333Z,3.00
2018-02-19T06:17:22.615Z,3.00
2018-02-19T06:19:50.901Z,3.00
2018-02-19T06:22:19.211Z,3.00
2018-02-19T06:24:47.502Z,3.10
2018-02-19T06:27:15.898Z,3.10
2018-02-19T06:29:44.240Z,3.00
2018-02-19T06:32:12.597Z,2.70
2018-02-19T06:34:40.861Z,2.50
2018-02-19T06:37:09.149Z,2.70
2018-02-19T06:39:37.531Z,2.60
2018-02-19T06:42:05.954Z,2.60
2018-02-19T06:44:34.204Z,2.40
2018-02-19T06:47:02.576Z,2.20
2018-02-19T06:49:30.864Z,2.30
2018-02-19T06:51:59.945Z,2.30
2018-02-19T06:54:28.236Z,2.30
2018-02-19T06:56:57.272Z,2.20
2018-02-19T06:59:25.564Z,2.20
2018-02-19T07:01:53.850Z,2.00
2018-02-19T07:04:22.128Z,2.20
2018-02-19T07:06:50.416Z,1.90
2018-02-19T07:09:18.682Z,1.70
2018-02-19T07:11:46.979Z,1.40
2018-02-19T07:14:15.245Z,1.30
2018-02-19T07:16:43.570Z,1.40
2018-02-19T07:19:12.771Z,1.20
2018-02-19T07:21:41.012Z,1.10
2018-02-19T07:24:09.284Z,1.10
2018-02-19T07:26:37.607Z,1.10
2018-02-19T07:29:05.856Z,1.10
2018-02-19T07:31:34.214Z,1.10
2018-02-19T07:34:02.507Z,1.10
2018-02-19T07:36:30.777Z,1.20
2018-02-19T07:38:59.148Z,1.30
2018-02-19T07:41:27.448Z,1.30
2018-02-19T07:43:56.485Z,1.30
2018-02-19T07:46:24.772Z,1.30
2018-02-19T07:48:53.038Z,1.30
2018-02-19T07:51:21.325Z,1.30
2018-02-19T07:53:49.592Z,1.30
2018-02-19T07:56:17.908Z,1.40
2018-02-19T07:58:46.208Z,1.40
2018-02-19T08:01:14.571Z,1.50
2018-02-19T08:03:42.864Z,1.60
2018-02-19T08:06:11.941Z,1.80
2018-02-19T08:08:40.229Z,1.80
2018-02-19T08:11:08.505Z,1.90
2018-02-19T08:13:36.803Z,2.00
2018-02-19T08:16:05.836Z,2.00
2018-02-19T08:18:34.149Z,2.00
2018-02-19T08:21:02.534Z,2.10
2018-02-19T08:23:30.794Z,2.20
2018-02-19T08:25:59.085Z,2.30
2018-02-19T08:28:27.355Z,2.30
2018-02-19T08:30:55.643Z,2.20
2018-02-19T08:33:23.909Z,2.20
2018-02-19T08:35:52.194Z,2.20
2018-02-19T08:38:20.467Z,2.10
2018-02-19T08:40:48.764Z,2.20
2018-02-19T08:43:17.800Z,2.40
2018-02-19T08:45:46.116Z,2.40
2018-02-19T08:48:14.393Z,2.40
2018-02-19T08:50:42.664Z,2.50
2018-02-19T08:53:11.155Z,2.50
2018-02-19T08:55:39.424Z,2.60
2018-02-19T08:58:07.807Z,2.60
2018-02-19T09:00:36.093Z,2.60
2018-02-19T09:03:04.396Z,2.70
2018-02-19T09:05:33.611Z,2.70
2018-02-19T09:08:01.837Z,2.70
2018-02-19T09:10:30.155Z,2.70
2018-02-19T09:12:58.436Z,2.70
2018-02-19T09:15:27.609Z,2.80
2018-02-19T09:17:56.636Z,2.90
2018-02-19T09:20:25.063Z,2.90
2018-02-19T09:22:53.323Z,2.90
2018-02-19T09:25:21.622Z,3.00
2018-02-19T09:27:49.894Z,3.00
2018-02-19T09:30:18.278Z,3.20
2018-02-19T09:32:46.562Z,3.30
2018-02-19T09:35:14.835Z,3.50
2018-02-19T09:37:44.030Z,3.70
2018-02-19T09:40:12.314Z,3.70
2018-02-19T09:42:40.682Z,3.90
2018-02-19T09:45:08.964Z,3.60
2018-02-19T09:47:37.282Z,3.70
2018-02-19T09:50:05.569Z,3.80
2018-02-19T09:52:33.838Z,4.00
2018-02-19T09:55:02.128Z,4.10
2018-02-19T09:57:30.445Z,4.20
2018-02-19T09:59:58.743Z,4.30
2018-02-19T10:02:27.022Z,4.40
2018-02-19T10:04:56.079Z,4.60
2018-02-19T10:07:24.375Z,4.60
2018-02-19T10:09:52.688Z,4.80
2018-02-19T10:12:21.749Z,4.70
2018-02-19T10:14:50.058Z,4.70
2018-02-19T10:17:19.094Z,5.00
2018-02-19T10:19:47.357Z,5.00
2018-02-19T10:22:15.637Z,5.00
2018-02-19T10:24:44.057Z,5.10
2018-02-19T10:27:12.436Z,5.20
2018-02-19T10:29:40.706Z,5.40
2018-02-19T10:32:09.770Z,5.10
2018-02-19T10:34:38.082Z,5.00
2018-02-19T10:37:06.389Z,5.10
2018-02-19T10:39:35.481Z,5.20
2018-02-19T10:42:03.750Z,5.20
2018-02-19T10:44:32.043Z,5.30
2018-02-19T10:47:00.289Z,5.30
2018-02-19T10:49:30.328Z,5.50
2018-02-19T10:51:58.620Z,5.40
2018-02-19T10:54:27.676Z,5.60
2018-02-19T10:56:55.942Z,5.60
2018-02-19T10:59:24.229Z,5.60
2018-02-19T11:01:52.491Z,5.50
2018-02-19T11:04:20.799Z,5.70
2018-02-19T11:06:49.189Z,5.70
2018-02-19T11:09:17.655Z,5.80
2018-02-19T11:11:46.724Z,5.80
2018-02-19T11:14:14.997Z,5.80
2018-02-19T11:16:43.292Z,5.90
2018-02-19T11:19:11.555Z,5.80
2018-02-19T11:21:39.864Z,5.70
2018-02-19T11:24:08.152Z,6.00
2018-02-19T11:26:36.433Z,6.00
2018-02-19T11:29:04.715Z,6.00
2018-02-19T11:31:32.992Z,6.10
2018-02-19T11:34:02.065Z,6.00
2018-02-19T11:36:30.359Z,6.00
2018-02-19T11:38:58.733Z,6.20
2018-02-19T11:41:27.806Z,6.60
2018-02-19T11:43:56.091Z,6.60
2018-02-19T11:46:24.379Z,6.70
2018-02-19T11:48:53.426Z,7.00
2018-02-19T11:51:21.708Z,6.90
2018-02-19T11:53:49.990Z,7.10
2018-02-19T11:56:18.364Z,7.10
2018-02-19T11:58:46.642Z,7.30
2018-02-19T12:01:14.907Z,7.00
2018-02-19T12:03:43.208Z,7.20
2018-02-19T12:06:11.497Z,7.20
2018-02-19T12:08:41.279Z,7.30
2018-02-19T12:11:09.568Z,7.30
2018-02-19T12:13:37.846Z,7.60
2018-02-19T12:16:06.117Z,7.70
2018-02-19T12:18:34.386Z,7.70
2018-02-19T12:21:02.691Z,7.40
2018-02-19T12:23:30.952Z,7.30
2018-02-19T12:25:59.242Z,7.20
2018-02-19T12:28:28.344Z,7.20
2018-02-19T12:30:57.421Z,7.40
2018-02-19T12:33:25.803Z,7.40
2018-02-19T12:35:54.268Z,7.50
2018-02-19T12:38:23.512Z,7.80
2018-02-19T12:40:52.606Z,7.60
2018-02-19T12:43:20.882Z,7.60
2018-02-19T12:45:49.137Z,7.60
2018-02-19T12:48:17.435Z,7.60
2018-02-19T12:50:46.480Z,7.60
2018-02-19T12:53:14.787Z,7.60
2018-02-19T12:55:43.575Z,7.50
2018-02-19T12:58:11.930Z,7.30
2018-02-19T13:00:40.230Z,7.40
2018-02-19T13:03:08.481Z,7.30
2018-02-19T13:05:36.989Z,7.40
2018-02-19T13:08:05.245Z,7.60
2018-02-19T13:10:33.553Z,7.50
2018-02-19T13:13:01.923Z,7.60
2018-02-19T13:15:30.181Z,7.50
2018-02-19T13:17:58.579Z,7.40
2018-02-19T13:20:26.840Z,7.40
2018-02-19T13:22:55.133Z,7.50
2018-02-19T13:25:23.513Z,7.80
2018-02-19T13:27:51.789Z,7.80
2018-02-19T13:30:20.053Z,8.00
2018-02-19T13:32:48.344Z,7.80
2018-02-19T13:35:16.621Z,7.90
2018-02-19T13:37:44.896Z,7.90
2018-02-19T13:40:13.380Z,7.80
2018-02-19T13:42:41.656Z,8.00
2018-02-19T13:45:09.933Z,8.20
2018-02-19T13:47:38.191Z,8.40
2018-02-19T13:50:06.495Z,8.40
2018-02-19T13:52:34.756Z,8.70
2018-02-19T13:55:03.054Z,8.50
2018-02-19T13:57:32.851Z,8.30
2018-02-19T14:00:01.130Z,8.30
2018-02-19T14:02:29.412Z,8.40
2018-02-19T14:04:57.686Z,8.40
2018-02-19T14:07:26.169Z,8.50
2018-02-19T14:09:54.425Z,8.60
2018-02-19T14:12:22.730Z,8.60
2018-02-19T14:14:51.102Z,8.70
2018-02-19T14:17:19.348Z,8.50
2018-02-19T14:19:47.633Z,8.40
2018-02-19T14:22:15.904Z,8.50
2018-02-19T14:24:44.188Z,8.60
2018-02-19T14:27:12.533Z,8.70
2018-02-19T14:29:41.587Z,8.90
2018-02-19T14:32:09.840Z,8.80
2018-02-19T14:34:38.253Z,8.80
2018-02-19T14:37:07.280Z,8.80
2018-02-19T14:39:35.616Z,8.80
2018-02-19T14:42:03.898Z,9.10
2018-02-19T14:44:32.159Z,9.00
2018-02-19T14:47:00.456Z,8.60
2018-02-19T14:49:29.646Z,8.20
2018-02-19T14:51:57.922Z,8.20
2018-02-19T14:54:26.180Z,8.10
2018-02-19T14:56:54.464Z,8.10
2018-02-19T14:59:22.729Z,8.00
2018-02-19T15:01:50.984Z,8.00
2018-02-19T15:04:19.282Z,8.20
2018-02-19T15:06:47.539Z,8.00
2018-02-19T15:09:15.829Z,7.80
2018-02-19T15:11:44.107Z,7.70
2018-02-19T15:14:12.424Z,7.40
2018-02-19T15:16:41.613Z,7.10
2018-02-19T15:19:09.911Z,7.00
2018-02-19T15:21:38.205Z,6.90
2018-02-19T15:24:07.226Z,6.60
2018-02-19T15:26:35.542Z,6.60
2018-02-19T15:29:03.825Z,6.60
2018-02-19T15:31:32.888Z,6.50
2018-02-19T15:34:01.153Z,6.40
2018-02-19T15:36:29.468Z,6.40
2018-02-19T15:38:57.760Z,6.50
2018-02-19T15:41:26.024Z,6.30
2018-02-19T15:43:54.506Z,6.20
2018-02-19T15:46:22.890Z,6.20
2018-02-19T15:48:51.265Z,6.20
2018-02-19T15:51:19.516Z,6.10
2018-02-19T15:53:48.126Z,6.00
2018-02-19T15:56:17.193Z,5.90
2018-02-19T15:58:45.462Z,5.90
2018-02-19T16:01:14.344Z,5.90
2018-02-19T16:03:42.607Z,5.70
2018-02-19T16:06:11.664Z,5.50
2018-02-19T16:08:39.938Z,5.50
2018-02-19T16:11:08.237Z,5.50
2018-02-19T16:13:37.261Z,5.30
2018-02-19T16:16:05.592Z,5.30
2018-02-19T16:18:33.884Z,5.30
2018-02-19T16:21:02.245Z,5.30
2018-02-19T16:23:30.531Z,5.30
2018-02-19T16:25:58.821Z,5.20
2018-02-19T16:28:27.896Z,5.10
2018-02-19T16:30:56.275Z,5.10
2018-02-19T16:33:24.553Z,5.00
2018-02-19T16:35:52.824Z,5.00
2018-02-19T16:38:21.209Z,4.90
2018-02-19T16:40:49.497Z,4.90
2018-02-19T16:43:17.972Z,4.80
2018-02-19T16:45:46.241Z,4.80
2018-02-19T16:48:14.516Z,4.80
2018-02-19T16:50:42.800Z,4.80
2018-02-19T16:53:11.073Z,4.80
2018-02-19T16:55:39.369Z,4.70
2018-02-19T16:58:07.643Z,4.80
2018-02-19T17:00:35.957Z,4.80
2018-02-19T17:03:04.296Z,4.80
2018-02-19T17:05:34.101Z,4.70
2018-02-19T17:08:02.400Z,4.70
2018-02-19T17:10:31.424Z,4.60
2018-02-19T17:12:59.757Z,4.60
2018-02-19T17:15:28.030Z,4.60
2018-02-19T17:17:56.340Z,4.50
2018-02-19T17:20:25.363Z,4.50
2018-02-19T17:22:53.648Z,4.40
2018-02-19T17:25:21.965Z,4.50
2018-02-19T17:27:50.224Z,4.40
2018-02-19T17:30:18.614Z,4.40
2018-02-19T17:32:46.896Z,4.40
2018-02-19T17:35:15.600Z,4.30
2018-02-19T17:37:44.644Z,4.30
2018-02-19T17:40:13.048Z,4.30
2018-02-19T17:42:41.329Z,4.20
2018-02-19T17:45:09.592Z,4.20
2018-02-19T17:47:37.983Z,4.20
2018-02-19T17:50:06.237Z,4.10
2018-02-19T17:52:34.639Z,4.20
2018-02-19T17:55:02.952Z,4.20
2018-02-19T17:57:32.027Z,4.20
2018-02-19T18:00:00.300Z,4.20
2018-02-19T18:02:28.600Z,4.20
2018-02-19T18:04:57.766Z,4.30
2018-02-19T18:07:26.045Z,4.30
2018-02-19T18:09:54.341Z,4.30
2018-02-19T18:12:22.700Z,4.20
2018-02-19T18:14:50.983Z,4.10
2018-02-19T18:17:19.254Z,4.10
2018-02-19T18:19:47.721Z,4.10
2018-02-19T18:22:16.013Z,4.10
2018-02-19T18:24:44.327Z,4.10
2018-02-19T18:27:13.381Z,4.10
2018-02-19T18:29:41.652Z,4.10
2018-02-19T18:32:09.932Z,4.10
2018-02-19T18:34:38.234Z,4.00
2018-02-19T18:37:06.640Z,4.00
2018-02-19T18:39:35.664Z,3.90
2018-02-19T18:42:03.996Z,3.90
2018-02-19T18:44:33.080Z,4.10
2018-02-19T18:47:01.373Z,4.00
2018-02-19T18:49:30.409Z,4.10
2018-02-19T18:51:58.698Z,4.10
2018-02-19T18:54:26.973Z,4.10
2018-02-19T18:56:55.300Z,4.20
2018-02-19T18:59:24.324Z,4.00
2018-02-19T19:01:52.594Z,4.00
2018-02-19T19:04:20.946Z,4.00
2018-02-19T19:06:49.275Z,4.00
2018-02-19T19:09:29.598Z,4.10
2018-02-19T19:11:58.653Z,4.00
2018-02-19T19:14:26.948Z,4.00
2018-02-19T19:16:55.229Z,3.90
2018-02-19T19:19:23.524Z,3.90
2018-02-19T19:21:52.560Z,3.80
2018-02-19T19:24:20.846Z,3.80
2018-02-19T19:26:49.200Z,3.90
2018-02-19T19:29:18.204Z,3.90
2018-02-19T19:31:46.513Z,3.90
2018-02-19T19:34:14.771Z,3.80
2018-02-19T19:36:43.069Z,3.90
2018-02-19T19:39:11.444Z,3.90
2018-02-19T19:41:39.736Z,3.80
2018-02-19T19:44:08.013Z,3.70
2018-02-19T19:46:36.376Z,3.70
2018-02-19T19:49:04.678Z,3.70
2018-02-19T19:51:33.862Z,3.50
2018-02-19T19:54:02.201Z,3.50
2018-02-19T19:56:30.472Z,3.50
2018-02-19T19:58:58.777Z,3.60
2018-02-19T20:01:27.062Z,3.60
2018-02-19T20:03:55.342Z,3.50
2018-02-19T20:06:23.628Z,3.60
2018-02-19T20:08:51.896Z,3.60
2018-02-19T20:11:20.288Z,3.60
2018-02-19T20:13:48.570Z,3.60
2018-02-19T20:16:16.844Z,3.60
2018-02-19T20:18:45.115Z,3.50
2018-02-19T20:21:13.420Z,3.50
2018-02-19T20:23:42.583Z,3.20
2018-02-19T20:26:10.882Z,3.20
2018-02-19T20:28:39.940Z,3.30
2018-02-19T20:31:08.232Z,3.30
2018-02-19T20:33:36.542Z,3.30
2018-02-19T20:36:05.576Z,3.30
2018-02-19T20:38:34.035Z,3.30
2018-02-19T20:41:03.083Z,3.30
2018-02-19T20:43:31.365Z,3.30
2018-02-19T20:46:00.459Z,3.30
2018-02-19T20:48:28.712Z,3.30
2018-02-19T20:50:57.018Z,3.30
2018-02-19T20:53:25.292Z,3.20
2018-02-19T20:55:53.683Z,3.10
2018-02-19T20:58:21.972Z,3.10
2018-02-19T21:00:51.016Z,3.10
2018-02-19T21:03:19.320Z,3.10
2018-02-19T21:05:47.598Z,3.20
2018-02-19T21:08:15.982Z,3.20
2018-02-19T21:10:44.357Z,3.10
2018-02-19T21:13:12.731Z,3.10
2018-02-19T21:15:41.111Z,3.10
2018-02-19T21:18:09.376Z,3.10
2018-02-19T21:20:37.714Z,3.10
2018-02-19T21:23:05.983Z,3.10
2018-02-19T21:25:35.016Z,3.00
2018-02-19T21:28:03.521Z,3.00
2018-02-19T21:30:31.787Z,3.00
2018-02-19T21:33:00.120Z,3.00
2018-02-19T21:35:28.408Z,2.90
2018-02-19T21:37:56.688Z,2.80
2018-02-19T21:40:24.972Z,2.80
2018-02-19T21:42:53.236Z,2.70
2018-02-19T21:45:21.521Z,2.70
2018-02-19T21:47:49.805Z,2.70
2018-02-19T21:50:18.076Z,2.60
2018-02-19T21:52:46.403Z,2.60
2018-02-19T21:55:14.752Z,2.60
2018-02-19T21:57:43.049Z,2.60
2018-02-19T22:00:11.428Z,2.60
2018-02-19T22:02:39.741Z,2.50
2018-02-19T22:05:08.802Z,2.50
2018-02-19T22:07:37.060Z,2.50
2018-02-19T22:10:05.351Z,2.50
2018-02-19T22:12:33.652Z,2.40
2018-02-19T22:15:01.965Z,2.40
2018-02-19T22:17:30.291Z,2.40
2018-02-19T22:19:58.671Z,2.40
2018-02-19T22:22:27.151Z,2.20
2018-02-19T22:24:55.426Z,2.40
2018-02-19T22:27:23.729Z,3.00
2018-02-19T22:29:52.771Z,3.30
2018-02-19T22:32:21.063Z,3.30
2018-02-19T22:34:49.344Z,3.30
2018-02-19T22:37:17.616Z,3.30
2018-02-19T22:39:45.891Z,3.50
2018-02-19T22:42:14.169Z,3.70
2018-02-19T22:44:42.483Z,3.50
2018-02-19T22:47:12.262Z,3.60
2018-02-19T22:49:40.582Z,3.60
2018-02-19T22:52:09.652Z,3.80
2018-02-19T22:54:37.925Z,3.80
2018-02-19T22:57:06.306Z,3.70
2018-02-19T22:59:34.586Z,3.80
2018-02-19T23:02:02.961Z,3.80
2018-02-19T23:04:31.258Z,3.80
2018-02-19T23:06:59.530Z,3.60
2018-02-19T23:09:27.824Z,3.50
2018-02-19T23:11:56.900Z,3.70
2018-02-19T23:14:25.194Z,3.70
2018-02-19T23:16:54.253Z,3.90
2018-02-19T23:19:22.644Z,3.90
2018-02-19T23:21:51.140Z,3.90
2018-02-19T23:24:19.420Z,4.00
2018-02-19T23:26:48.601Z,4.10
2018-02-19T23:29:16.980Z,4.10
2018-02-19T23:31:45.248Z,4.00
2018-02-19T23:34:13.564Z,3.80
2018-02-19T23:36:42.645Z,3.80
2018-02-19T23:39:10.945Z,3.80
2018-02-19T23:41:40.033Z,3.90
2018-02-19T23:44:09.084Z,4.00
2018-02-19T23:46:37.389Z,4.00
2018-02-19T23:49:05.777Z,3.90
2018-02-19T23:51:34.179Z,3.80
2018-02-19T23:54:03.335Z,3.60
2018-02-19T23:56:31.612Z,3.60
2018-02-19T23:58:59.890Z,3.70
